Time;durP1;ratioP1;P1;durP2;ratioP2;P2;SDS_P1;SDS_P2;PMS_P1;PMS_P2;Temp;Humidity;BMP_temperature;BMP_pressure;BME280_temperature;BME280_humidity;BME280_pressure;Samples;Min_cycle;Max_cycle;Signal;HPM_P1;HPM_P2
2021/08/23 00:00:10;;;;;;;7.32;6.35;;;512.30;1920.00;;;;;;5091663;28;20363;-63
2021/08/23 00:02:36;;;;;;;13.80;6.82;;;512.10;1920.00;;;;;;5090915;28;20075;-64
2021/08/23 00:05:03;;;;;;;8.98;5.82;;;512.10;1894.40;;;;;;5091443;28;20062;-63
2021/08/23 00:07:28;;;;;;;7.88;5.75;;;512.20;1894.40;;;;;;5091554;28;20035;-64
2021/08/23 00:09:54;;;;;;;8.90;6.47;;;512.10;1920.00;;;;;;5091140;28;20024;-63
2021/08/23 00:12:21;;;;;;;7.80;5.93;;;512.00;1945.60;;;;;;5091361;28;20027;-63
2021/08/23 00:14:47;;;;;;;8.75;6.45;;;512.00;1920.00;;;;;;5091040;28;20035;-63
2021/08/23 00:17:13;;;;;;;9.82;5.80;;;512.00;1920.00;;;;;;5091555;28;20028;-63
2021/08/23 00:19:39;;;;;;;8.90;6.10;;;512.00;1920.00;;;;;;5090837;28;20039;-63
2021/08/23 00:22:21;;;;;;;9.00;6.65;;;487.30;1920.00;;;;;;5090948;28;20103;-63
2021/08/23 00:24:51;;;;;;;7.55;5.53;;;487.30;1945.60;;;;;;5091022;28;20118;-63
2021/08/23 00:27:17;;;;;;;7.78;6.15;;;487.20;1945.60;;;;;;5090667;28;20024;-64
2021/08/23 00:29:44;;;;;;;8.35;6.20;;;487.20;1945.60;;;;;;5090961;28;20583;-64
2021/08/23 00:32:10;;;;;;;8.60;6.65;;;487.30;1945.60;;;;;;5091190;28;20028;-66
2021/08/23 00:34:36;;;;;;;7.60;5.70;;;487.10;1971.20;;;;;;5090609;28;20363;-63
2021/08/23 00:37:02;;;;;;;9.32;6.18;;;487.10;1971.20;;;;;;5090960;28;20028;-63
2021/08/23 00:39:28;;;;;;;9.63;6.05;;;487.10;1971.20;;;;;;5090769;28;20040;-63
2021/08/23 00:41:54;;;;;;;7.47;5.60;;;487.20;1971.20;;;;;;5090460;28;20378;-64
2021/08/23 00:44:19;;;;;;;7.22;5.13;;;487.10;1945.60;;;;;;5090635;28;20036;-63
2021/08/23 00:46:45;;;;;;;8.60;5.18;;;487.10;1971.20;;;;;;5090885;28;20437;-63
2021/08/23 00:49:11;;;;;;;6.53;5.63;;;487.10;1971.20;;;;;;5090922;28;20097;-63
2021/08/23 00:51:37;;;;;;;7.65;6.35;;;487.10;1971.20;;;;;;5090714;28;20020;-63
2021/08/23 00:54:03;;;;;;;9.20;6.22;;;487.10;1996.80;;;;;;5090914;28;20020;-63
2021/08/23 00:56:28;;;;;;;12.77;6.07;;;487.10;1996.80;;;;;;5090370;28;20025;-63
2021/08/23 00:58:54;;;;;;;6.35;5.75;;;487.10;1996.80;;;;;;5090288;28;20088;-63
2021/08/23 01:01:26;;;;;;;13.70;6.53;;;487.00;2022.40;;;;;;5090872;28;20483;-64
2021/08/23 01:04:01;;;;;;;7.78;6.18;;;487.10;2022.40;;;;;;5090555;28;20032;-63
2021/08/23 01:06:28;;;;;;;8.65;5.93;;;487.10;2022.40;;;;;;5090389;28;20020;-65
2021/08/23 01:08:59;;;;;;;8.63;5.93;;;487.10;2022.40;;;;;;5090330;28;20543;-63
2021/08/23 01:11:29;;;;;;;10.27;6.63;;;487.10;2022.40;;;;;;5090268;28;20024;-63
2021/08/23 01:13:54;;;;;;;6.97;5.05;;;487.00;2022.40;;;;;;5089490;28;20077;-63
2021/08/23 01:16:20;;;;;;;8.18;5.57;;;487.00;2022.40;;;;;;5090529;28;20099;-63
2021/08/23 01:18:46;;;;;;;7.60;5.20;;;487.00;2022.40;;;;;;5089852;28;20028;-63
2021/08/23 01:21:17;;;;;;;8.40;6.05;;;487.00;2022.40;;;;;;5090266;28;20028;-63
2021/08/23 01:23:46;;;;;;;8.70;5.85;;;487.00;2048.00;;;;;;5090209;28;20059;-64
2021/08/23 01:26:18;;;;;;;7.50;5.78;;;486.90;2048.00;;;;;;5090225;28;20107;-65
2021/08/23 01:29:06;;;;;;;7.88;5.28;;;487.00;2022.40;;;;;;5090084;28;20024;-63
2021/08/23 01:31:40;;;;;;;7.85;5.15;;;487.00;2048.00;;;;;;5080089;28;20074;-62
2021/08/23 01:34:07;;;;;;;7.57;5.65;;;486.90;2048.00;;;;;;5079731;28;20066;-63
2021/08/23 01:36:33;;;;;;;8.30;5.70;;;486.80;2073.60;;;;;;5080396;28;20020;-62
2021/08/23 01:38:59;;;;;;;6.88;5.03;;;486.80;2048.00;;;;;;5078959;28;20029;-63
2021/08/23 01:41:25;;;;;;;7.82;5.75;;;486.80;2048.00;;;;;;5079923;28;20028;-64
2021/08/23 01:43:51;;;;;;;6.85;5.70;;;486.80;2073.60;;;;;;5077980;28;20032;-66
2021/08/23 01:46:17;;;;;;;8.82;5.60;;;486.70;2099.20;;;;;;5079230;28;20020;-64
2021/08/23 01:48:43;;;;;;;7.53;6.00;;;486.70;2124.80;;;;;;5078133;28;20024;-62
2021/08/23 01:51:09;;;;;;;9.38;5.88;;;486.70;2124.80;;;;;;5079177;28;20029;-63
2021/08/23 01:53:34;;;;;;;7.43;5.70;;;486.70;2099.20;;;;;;5078218;28;20106;-63
2021/08/23 01:56:01;;;;;;;10.93;5.22;;;486.70;2099.20;;;;;;5079738;28;20020;-63
2021/08/23 01:58:27;;;;;;;7.82;5.07;;;486.70;2099.20;;;;;;5078386;28;20055;-63
2021/08/23 02:00:53;;;;;;;10.23;5.43;;;486.60;2150.40;;;;;;5080489;28;20020;-63
2021/08/23 02:03:19;;;;;;;6.90;5.53;;;486.60;2124.80;;;;;;5079524;28;20047;-64
2021/08/23 02:05:45;;;;;;;6.45;5.45;;;486.70;2124.80;;;;;;5078733;28;20024;-63
2021/08/23 02:08:11;;;;;;;6.75;5.45;;;486.50;2176.00;;;;;;5078169;28;20394;-63
2021/08/23 02:10:37;;;;;;;7.15;5.95;;;486.50;2176.00;;;;;;5080588;28;20432;-63
2021/08/23 02:13:03;;;;;;;7.80;5.68;;;486.50;2150.40;;;;;;5077729;28;20024;-64
2021/08/23 02:15:29;;;;;;;7.43;5.75;;;486.50;2150.40;;;;;;5079866;28;20056;-64
2021/08/23 02:17:55;;;;;;;6.07;5.15;;;486.60;2124.80;;;;;;5080258;28;20090;-65
2021/08/23 02:20:20;;;;;;;8.70;6.18;;;486.70;2099.20;;;;;;5089515;28;20028;-64
2021/08/23 02:22:46;;;;;;;10.70;9.45;;;486.60;2150.40;;;;;;5089289;28;20028;-64
2021/08/23 02:25:13;;;;;;;16.35;9.10;;;486.50;2201.60;;;;;;5090452;28;20064;-62
2021/08/23 02:27:38;;;;;;;10.65;6.75;;;486.50;2201.60;;;;;;5093137;28;20478;-64
2021/08/23 02:30:05;;;;;;;7.25;6.20;;;486.40;2201.60;;;;;;5093110;28;20024;-63
2021/08/23 02:32:30;;;;;;;10.88;6.80;;;486.40;2201.60;;;;;;5093377;28;20027;-64
2021/08/23 02:34:56;;;;;;;6.72;5.25;;;486.40;2201.60;;;;;;5092912;28;20028;-63
2021/08/23 02:37:22;;;;;;;8.20;5.80;;;461.70;2201.60;;;;;;5093167;28;20028;-63
2021/08/23 02:39:47;;;;;;;5.90;5.20;;;461.60;2227.20;;;;;;5092838;28;20020;-63
2021/08/23 02:42:13;;;;;;;7.68;5.57;;;461.60;2227.20;;;;;;5093177;28;20111;-63
2021/08/23 02:44:39;;;;;;;5.82;5.18;;;461.70;2227.20;;;;;;5092851;28;20036;-63
2021/08/23 02:47:04;;;;;;;6.28;5.65;;;461.60;2227.20;;;;;;5092650;28;20493;-63
2021/08/23 02:49:30;;;;;;;7.43;6.20;;;461.50;2252.80;;;;;;5092898;28;20105;-63
2021/08/23 02:51:56;;;;;;;7.38;6.20;;;461.40;2304.00;;;;;;5092816;28;20032;-63
2021/08/23 02:54:21;;;;;;;13.88;6.03;;;461.40;2329.60;;;;;;5092844;28;20432;-63
2021/08/23 02:56:48;;;;;;;7.90;5.93;;;461.40;2329.60;;;;;;5092602;28;20040;-64
2021/08/23 02:59:14;;;;;;;7.80;5.32;;;461.40;2329.60;;;;;;5092481;28;20020;-63
2021/08/23 03:01:39;;;;;;;7.25;5.72;;;461.40;2329.60;;;;;;5092671;28;20024;-63
2021/08/23 03:04:05;;;;;;;6.53;5.88;;;461.40;2304.00;;;;;;5092431;28;20032;-63
2021/08/23 03:06:31;;;;;;;10.27;5.30;;;461.50;2304.00;;;;;;5092734;28;20043;-63
2021/08/23 03:08:57;;;;;;;7.72;6.00;;;461.40;2304.00;;;;;;5092320;28;20107;-63
2021/08/23 03:11:24;;;;;;;11.57;6.55;;;461.40;2329.60;;;;;;5092688;28;20106;-63
2021/08/23 03:13:49;;;;;;;7.10;5.72;;;461.30;2355.20;;;;;;5092326;28;20478;-64
2021/08/23 03:16:15;;;;;;;7.55;5.60;;;461.30;2380.80;;;;;;5092295;28;20028;-64
2021/08/23 03:18:41;;;;;;;9.57;6.00;;;461.30;2355.20;;;;;;5092296;28;20107;-63
2021/08/23 03:21:07;;;;;;;6.30;5.55;;;461.20;2380.80;;;;;;5092006;28;20020;-63
2021/08/23 03:23:33;;;;;;;10.57;5.63;;;461.20;2355.20;;;;;;5092311;28;20062;-64
2021/08/23 03:26:00;;;;;;;7.88;5.28;;;461.30;2355.20;;;;;;5092341;28;20023;-63
2021/08/23 03:28:26;;;;;;;5.82;5.25;;;461.20;2355.20;;;;;;5091977;28;20024;-62
2021/08/23 03:30:52;;;;;;;6.63;5.53;;;461.20;2380.80;;;;;;5092263;28;20390;-64
2021/08/23 03:33:18;;;;;;;7.18;5.45;;;461.20;2355.20;;;;;;5091927;28;20024;-63
2021/08/23 03:35:44;;;;;;;8.85;5.70;;;461.10;2380.80;;;;;;5091867;28;20466;-63
2021/08/23 03:38:10;;;;;;;8.77;6.15;;;461.00;2380.80;;;;;;5091107;28;20034;-64
2021/08/23 03:40:36;;;;;;;13.32;6.13;;;460.90;2380.80;;;;;;5091725;28;20024;-62
2021/08/23 03:43:01;;;;;;;8.57;6.40;;;461.00;2380.80;;;;;;5091803;28;20405;-63
2021/08/23 03:45:27;;;;;;;8.15;6.18;;;461.00;2380.80;;;;;;5091584;28;20032;-63
2021/08/23 03:47:53;;;;;;;8.48;6.35;;;461.00;2380.80;;;;;;5090231;28;20383;-63
2021/08/23 03:50:19;;;;;;;8.05;6.10;;;461.00;2380.80;;;;;;5091460;28;20032;-64
2021/08/23 03:52:44;;;;;;;9.35;6.32;;;461.00;2380.80;;;;;;5091597;28;20064;-64
2021/08/23 03:55:11;;;;;;;8.45;5.85;;;460.90;2380.80;;;;;;5091170;28;20381;-64
2021/08/23 03:57:37;;;;;;;9.15;5.68;;;461.00;2380.80;;;;;;5087816;28;20589;-63
2021/08/23 04:00:04;;;;;;;12.68;6.45;;;461.10;2380.80;;;;;;5091879;28;20103;-63
2021/08/23 04:02:30;;;;;;;13.20;6.38;;;461.00;2380.80;;;;;;5091482;28;20027;-63
2021/08/23 04:04:56;;;;;;;6.88;6.00;;;461.10;2380.80;;;;;;5091086;28;20143;-63
2021/08/23 04:07:22;;;;;;;9.02;5.60;;;461.00;2380.80;;;;;;5091498;28;20119;-63
2021/08/23 04:09:47;;;;;;;6.57;5.43;;;461.00;2380.80;;;;;;5091049;28;20020;-64
2021/08/23 04:12:13;;;;;;;7.15;5.97;;;461.10;2380.80;;;;;;5091358;28;20032;-64
2021/08/23 04:14:39;;;;;;;8.00;6.03;;;461.10;2380.80;;;;;;5091318;28;20016;-63
2021/08/23 04:17:05;;;;;;;7.00;6.00;;;461.20;2380.80;;;;;;5091402;28;20024;-64
2021/08/23 04:19:31;;;;;;;9.23;6.55;;;461.20;2380.80;;;;;;5091406;28;20024;-63
2021/08/23 04:21:57;;;;;;;7.85;5.88;;;461.40;2380.80;;;;;;5090941;28;20028;-63
2021/08/23 04:24:23;;;;;;;7.75;6.05;;;461.50;2380.80;;;;;;5090937;28;20036;-63
2021/08/23 04:26:49;;;;;;;6.82;5.85;;;461.70;2380.80;;;;;;5091049;28;20024;-64
2021/08/23 04:29:15;;;;;;;11.70;5.80;;;461.70;2380.80;;;;;;5090675;28;20028;-63
2021/08/23 04:31:42;;;;;;;7.00;6.22;;;461.70;2355.20;;;;;;5091254;28;20121;-63
2021/08/23 04:34:08;;;;;;;8.57;5.65;;;486.50;2355.20;;;;;;5090822;28;20024;-66
2021/08/23 04:36:34;;;;;;;9.27;6.57;;;486.50;2355.20;;;;;;5090930;28;20020;-66
2021/08/23 04:39:00;;;;;;;8.73;5.97;;;486.60;2329.60;;;;;;5090898;28;20070;-65
2021/08/23 04:41:25;;;;;;;7.28;5.65;;;486.40;2355.20;;;;;;5090297;28;20028;-69
2021/08/23 04:43:51;;;;;;;7.35;6.20;;;486.70;2329.60;;;;;;5090676;28;20420;-66
2021/08/23 04:46:17;;;;;;;12.57;6.30;;;486.80;2304.00;;;;;;5090566;28;20028;-63
2021/08/23 04:48:44;;;;;;;7.30;5.75;;;486.80;2304.00;;;;;;5086282;28;20155;-63
2021/08/23 04:51:10;;;;;;;8.68;6.90;;;487.10;2278.40;;;;;;5080169;28;20107;-61
2021/08/23 04:53:36;;;;;;;9.85;7.40;;;512.60;2176.00;;;;;;5080010;28;20029;-64
2021/08/23 04:56:02;;;;;;;8.13;6.53;;;563.40;2022.40;;;;;;5078290;28;20035;-61
2021/08/23 04:58:28;;;;;;;11.40;6.55;;;563.90;1971.20;;;;;;5077687;28;20055;-61
2021/08/23 05:00:53;;;;;;;13.95;7.25;;;589.30;1868.80;;;;;;5080775;28;20625;-63
2021/08/23 05:03:19;;;;;;;15.23;6.97;;;589.30;1868.80;;;;;;5090423;28;20068;-63
2021/08/23 05:05:48;;;;;;;11.68;6.03;;;589.50;1843.20;;;;;;5084841;28;20027;-63
2021/08/23 05:08:17;;;;;;;9.73;5.90;;;614.40;1792.00;;;;;;5070233;28;20041;-64
2021/08/23 05:10:43;;;;;;;16.70;6.78;;;589.50;1817.60;;;;;;5070237;28;20016;-62
2021/08/23 05:13:09;;;;;;;7.40;6.10;;;615.30;1715.20;;;;;;5070128;28;20517;-63
2021/08/23 05:15:35;;;;;;;10.02;7.10;;;665.70;1664.00;;;;;;5069973;28;20028;-64
2021/08/23 05:18:01;;;;;;;9.77;6.93;;;691.40;1536.00;;;;;;5086559;28;20463;-66
2021/08/23 05:20:26;;;;;;;9.15;6.82;;;716.90;1459.20;;;;;;5070172;28;20036;-65
2021/08/23 05:22:53;;;;;;;12.88;6.78;;;717.10;1459.20;;;;;;5070271;28;20049;-60
2021/08/23 05:25:19;;;;;;;8.38;6.68;;;717.50;1408.00;;;;;;5070066;28;20040;-62
2021/08/23 05:27:44;;;;;;;9.20;7.72;;;742.60;1382.40;;;;;;5069852;28;20024;-62
2021/08/23 05:30:10;;;;;;;9.95;7.75;;;768.10;1331.20;;;;;;5070161;28;20024;-61
2021/08/23 05:32:36;;;;;;;8.38;7.13;;;794.10;1254.40;;;;;;5070118;28;20036;-64
2021/08/23 05:35:03;;;;;;;6.90;6.25;;;819.50;1203.20;;;;;;5069922;28;20483;-66
2021/08/23 05:37:29;;;;;;;9.68;6.72;;;844.80;1177.60;;;;;;5078602;28;20032;-62
2021/08/23 05:39:55;;;;;;;8.40;6.43;;;845.10;1152.00;;;;;;5079816;28;20016;-66
2021/08/23 05:42:20;;;;;;;9.57;6.38;;;870.50;1126.40;;;;;;5072599;28;20036;-62
2021/08/23 05:44:46;;;;;;;7.30;6.60;;;870.70;1100.80;;;;;;5069762;28;20033;-62
2021/08/23 05:47:12;;;;;;;8.25;7.15;;;871.10;1075.20;;;;;;5070079;28;20028;-63
2021/08/23 05:49:38;;;;;;;7.65;6.93;;;871.20;1049.60;;;;;;5069804;28;20029;-63
2021/08/23 05:52:04;;;;;;;12.13;8.68;;;896.20;1024.00;;;;;;5069534;28;20044;-64
2021/08/23 05:54:30;;;;;;;7.50;6.43;;;896.90;998.40;;;;;;5070669;28;20390;-65
2021/08/23 05:56:57;;;;;;;7.80;7.07;;;922.20;998.40;;;;;;5069711;28;20132;-63
2021/08/23 05:59:23;;;;;;;8.52;7.68;;;947.20;947.20;;;;;;5070107;28;20417;-65
2021/08/23 06:01:56;;;;;;;7.65;6.97;;;922.50;947.20;;;;;;5073887;28;20026;-64
2021/08/23 06:04:22;;;;;;;8.13;7.32;;;947.40;947.20;;;;;;5073905;28;20112;-64
2021/08/23 06:06:49;;;;;;;14.05;7.70;;;947.70;921.60;;;;;;5073471;28;20127;-63
2021/08/23 06:09:19;;;;;;;11.13;7.07;;;947.60;947.20;;;;;;5073619;28;20032;-66
2021/08/23 06:11:45;;;;;;;9.32;8.25;;;947.60;921.60;;;;;;5073499;28;20074;-64
2021/08/23 06:14:11;;;;;;;9.80;8.95;;;973.40;896.00;;;;;;5073611;28;20417;-63
2021/08/23 06:16:37;;;;;;;12.55;11.35;;;973.70;896.00;;;;;;5073370;28;20044;-64
2021/08/23 06:19:03;;;;;;;9.98;9.18;;;998.50;896.00;;;;;;5073767;28;20025;-64
2021/08/23 06:21:29;;;;;;;11.30;10.30;;;999.20;870.40;;;;;;5073102;28;20087;-65
2021/08/23 06:23:55;;;;;;;11.40;10.38;;;1024.60;819.20;;;;;;5073186;28;20471;-64
2021/08/23 06:26:20;;;;;;;14.00;10.95;;;1024.10;870.40;;;;;;5077844;28;20078;-66
2021/08/23 06:28:46;;;;;;;11.52;10.55;;;1049.80;844.80;;;;;;5073508;28;20033;-67
2021/08/23 06:31:12;;;;;;;12.10;11.35;;;1049.70;844.80;;;;;;5073145;28;20143;-63
2021/08/23 06:33:37;;;;;;;16.33;13.35;;;1024.90;844.80;;;;;;5071377;28;20085;-65
2021/08/23 06:36:03;;;;;;;13.90;12.70;;;1049.80;844.80;;;;;;5073318;28;20109;-67
2021/08/23 06:38:29;;;;;;;14.35;13.05;;;1024.50;844.80;;;;;;5079295;28;20029;-64
2021/08/23 06:40:56;;;;;;;13.63;12.38;;;1049.60;844.80;;;;;;5092466;28;20039;-64
2021/08/23 06:43:22;;;;;;;13.00;12.10;;;1075.30;793.60;;;;;;5092930;28;20024;-67
2021/08/23 06:45:48;;;;;;;14.75;13.35;;;1075.90;793.60;;;;;;5087203;28;20451;-65
2021/08/23 06:48:14;;;;;;;14.18;13.27;;;1076.10;793.60;;;;;;5072868;28;20483;-64
2021/08/23 06:50:39;;;;;;;13.75;12.85;;;1101.20;793.60;;;;;;5073105;28;20025;-64
2021/08/23 06:53:05;;;;;;;14.77;13.50;;;1101.60;742.40;;;;;;5073011;28;20383;-64
2021/08/23 06:55:32;;;;;;;14.48;13.45;;;1126.50;768.00;;;;;;5073013;28;20048;-64
2021/08/23 06:57:59;;;;;;;13.98;12.98;;;1126.60;742.40;;;;;;5074849;28;20049;-64
2021/08/23 07:00:25;;;;;;;14.80;13.75;;;1126.60;768.00;;;;;;5072748;28;20017;-64
2021/08/23 07:02:50;;;;;;;14.52;13.43;;;1127.00;768.00;;;;;;5072413;28;20497;-71
2021/08/23 07:05:16;;;;;;;14.73;13.73;;;1152.20;716.80;;;;;;5072262;28;20040;-64
2021/08/23 07:07:42;;;;;;;15.05;14.05;;;1127.30;742.40;;;;;;5072569;28;20024;-68
2021/08/23 07:10:11;;;;;;;13.43;12.45;;;1126.90;742.40;;;;;;5075019;28;20088;-64
2021/08/23 07:12:37;;;;;;;14.68;13.68;;;1126.80;742.40;;;;;;5085411;28;20036;-65
2021/08/23 07:15:03;;;;;;;14.00;12.82;;;1127.00;742.40;;;;;;5087904;28;20059;-65
2021/08/23 07:17:28;;;;;;;13.80;12.73;;;1127.30;742.40;;;;;;5074553;28;20542;-65
2021/08/23 07:19:54;;;;;;;14.18;13.10;;;1152.20;716.80;;;;;;5072202;28;20112;-66
2021/08/23 07:22:20;;;;;;;14.90;13.63;;;1152.00;742.40;;;;;;5072341;28;20020;-64
2021/08/23 07:24:47;;;;;;;15.07;13.85;;;1126.60;768.00;;;;;;5072043;28;20029;-66
2021/08/23 07:27:14;;;;;;;14.23;13.13;;;1101.40;768.00;;;;;;5072022;28;20031;-68
2021/08/23 07:29:40;;;;;;;15.48;13.90;;;1101.50;768.00;;;;;;5069404;28;20032;-64
2021/08/23 07:32:06;;;;;;;17.17;15.50;;;1152.20;742.40;;;;;;5070119;28;20024;-64
2021/08/23 07:34:32;;;;;;;17.33;15.90;;;1152.50;742.40;;;;;;5070529;28;20020;-64
2021/08/23 07:36:58;;;;;;;15.68;14.30;;;1126.50;768.00;;;;;;5069937;28;20522;-66
2021/08/23 07:39:23;;;;;;;15.40;13.77;;;1101.70;742.40;;;;;;5070266;28;20024;-64
2021/08/23 07:41:50;;;;;;;16.00;14.18;;;1126.70;768.00;;;;;;5068998;28;20411;-65
2021/08/23 07:44:16;;;;;;;16.38;14.85;;;1101.50;768.00;;;;;;5069772;28;20032;-66
2021/08/23 07:46:41;;;;;;;15.45;14.07;;;1126.60;768.00;;;;;;5070318;28;20028;-62
2021/08/23 07:49:07;;;;;;;21.48;15.40;;;1101.30;768.00;;;;;;5069894;28;20032;-67
2021/08/23 07:51:33;;;;;;;28.25;16.08;;;1101.50;768.00;;;;;;5070049;28;20028;-65
2021/08/23 07:53:59;;;;;;;21.77;16.23;;;1101.30;768.00;;;;;;5070001;28;20033;-62
2021/08/23 07:56:25;;;;;;;22.80;17.27;;;1126.80;742.40;;;;;;5069224;28;20020;-64
2021/08/23 07:58:50;;;;;;;24.52;16.27;;;1126.50;768.00;;;;;;5069761;28;20437;-65
2021/08/23 08:01:16;;;;;;;26.00;16.52;;;1101.60;742.40;;;;;;5069953;28;20074;-64
2021/08/23 08:03:42;;;;;;;27.35;17.20;;;1101.30;742.40;;;;;;5069663;28;20037;-65
2021/08/23 08:06:08;;;;;;;31.13;17.05;;;1100.90;793.60;;;;;;5069295;28;20050;-66
2021/08/23 08:08:33;;;;;;;23.80;16.90;;;1101.30;768.00;;;;;;5069203;28;20032;-65
2021/08/23 08:11:00;;;;;;;26.50;15.85;;;1101.30;768.00;;;;;;5069510;28;20481;-67
2021/08/23 08:13:26;;;;;;;26.02;16.10;;;1101.30;768.00;;;;;;5069141;28;20040;-65
2021/08/23 08:15:52;;;;;;;19.55;14.63;;;1101.30;768.00;;;;;;5069432;28;20107;-64
2021/08/23 08:18:18;;;;;;;22.85;15.27;;;1152.00;716.80;;;;;;5070355;28;20028;-63
2021/08/23 08:20:45;;;;;;;20.13;14.13;;;1126.50;768.00;;;;;;5071331;28;20028;-64
2021/08/23 08:23:11;;;;;;;25.35;14.52;;;1101.60;742.40;;;;;;5070605;28;20037;-62
2021/08/23 08:25:37;;;;;;;28.42;13.32;;;1126.80;742.40;;;;;;5070887;28;20028;-63
2021/08/23 08:28:03;;;;;;;24.38;13.70;;;1126.90;742.40;;;;;;5070988;28;20017;-64
2021/08/23 08:30:29;;;;;;;16.45;13.43;;;1152.00;716.80;;;;;;5070479;28;20469;-65
2021/08/23 08:32:55;;;;;;;25.90;14.40;;;1127.30;716.80;;;;;;5070822;28;20017;-65
2021/08/23 08:35:22;;;;;;;21.92;13.05;;;1177.70;691.20;;;;;;5070640;28;20035;-65
2021/08/23 08:37:48;;;;;;;19.15;14.13;;;1177.80;691.20;;;;;;5070641;28;20391;-65
2021/08/23 08:40:13;;;;;;;17.73;14.10;;;1152.50;691.20;;;;;;5070507;28;20035;-64
2021/08/23 08:42:40;;;;;;;16.45;14.70;;;1126.40;742.40;;;;;;5070504;28;20059;-64
2021/08/23 08:45:07;;;;;;;25.35;12.05;;;1050.20;819.20;;;;;;5070109;28;20064;-64
2021/08/23 08:47:38;;;;;;;18.20;10.48;;;1024.20;819.20;;;;;;5070735;28;20082;-63
2021/08/23 08:50:05;;;;;;;18.75;9.65;;;998.80;870.40;;;;;;5069416;28;20056;-63
2021/08/23 08:52:32;;;;;;;20.13;11.05;;;998.50;844.80;;;;;;5070671;28;20090;-63
2021/08/23 08:54:58;;;;;;;13.40;9.07;;;973.50;870.40;;;;;;5070992;28;20082;-63
2021/08/23 08:57:24;;;;;;;12.32;8.48;;;973.00;870.40;;;;;;5070366;28;20538;-63
2021/08/23 08:59:49;;;;;;;16.15;8.52;;;948.10;844.80;;;;;;5070195;28;20108;-63
2021/08/23 09:02:16;;;;;;;14.82;9.32;;;947.70;870.40;;;;;;5070385;28;20025;-63
2021/08/23 09:04:42;;;;;;;23.95;10.30;;;947.80;844.80;;;;;;5070246;28;20445;-63
2021/08/23 09:07:09;;;;;;;9.73;8.30;;;947.70;870.40;;;;;;5070095;28;20033;-63
2021/08/23 09:09:36;;;;;;;10.80;8.00;;;922.30;896.00;;;;;;5070197;28;20036;-63
2021/08/23 09:12:12;;;;;;;9.15;8.00;;;922.50;870.40;;;;;;5070302;28;20024;-63
2021/08/23 09:14:51;;;;;;;11.40;7.82;;;947.30;870.40;;;;;;5069953;28;20428;-63
2021/08/23 09:17:20;;;;;;;8.10;7.35;;;922.20;819.20;;;;;;5069998;28;20036;-63
2021/08/23 09:19:57;;;;;;;10.25;8.05;;;922.00;819.20;;;;;;5070028;28;20025;-62
2021/08/23 09:22:25;;;;;;;11.05;7.32;;;921.90;819.20;;;;;;5070185;28;20063;-62
2021/08/23 09:24:51;;;;;;;10.57;6.65;;;921.90;844.80;;;;;;5069981;28;20032;-63
2021/08/23 09:27:16;;;;;;;8.15;7.40;;;921.90;870.40;;;;;;5069832;28;20036;-63
2021/08/23 09:29:55;;;;;;;8.50;7.53;;;921.90;870.40;;;;;;5069981;28;20068;-63
2021/08/23 09:32:29;;;;;;;8.98;7.93;;;921.90;844.80;;;;;;5069951;28;20021;-63
2021/08/23 09:34:56;;;;;;;9.95;7.10;;;922.00;870.40;;;;;;5070485;28;20024;-67
2021/08/23 09:37:30;;;;;;;9.05;7.28;;;921.80;844.80;;;;;;5074186;28;20037;-68
2021/08/23 09:40:08;;;;;;;9.50;6.97;;;921.80;844.80;;;;;;5073921;28;20059;-67
2021/08/23 09:42:34;;;;;;;9.35;6.65;;;921.60;844.80;;;;;;5074365;28;20020;-67
2021/08/23 09:44:59;;;;;;;7.32;6.55;;;896.90;844.80;;;;;;5073965;28;20185;-62
2021/08/23 09:47:29;;;;;;;7.32;6.32;;;896.90;844.80;;;;;;5073785;28;20027;-66
2021/08/23 09:49:56;;;;;;;7.88;6.18;;;896.90;870.40;;;;;;5073783;28;20025;-63
2021/08/23 09:52:30;;;;;;;8.88;6.50;;;896.80;870.40;;;;;;5074128;28;20021;-62
2021/08/23 09:55:14;;;;;;;10.02;6.55;;;896.80;870.40;;;;;;5073826;28;20483;-62
2021/08/23 09:57:45;;;;;;;7.40;6.70;;;896.70;896.00;;;;;;5073910;28;20049;-66
2021/08/23 10:00:12;;;;;;;8.38;6.40;;;896.50;870.40;;;;;;5073879;28;20062;-67
2021/08/23 10:02:46;;;;;;;8.00;6.32;;;896.20;896.00;;;;;;5073685;28;20032;-68
2021/08/23 10:05:15;;;;;;;13.68;7.57;;;896.50;896.00;;;;;;5073845;28;20066;-63
2021/08/23 10:07:41;;;;;;;8.23;7.28;;;896.60;870.40;;;;;;5073643;28;20490;-67
2021/08/23 10:10:08;;;;;;;11.38;6.82;;;896.50;870.40;;;;;;5073744;28;20517;-66
2021/08/23 10:12:34;;;;;;;8.45;6.88;;;896.50;870.40;;;;;;5073804;28;20048;-64
2021/08/23 10:15:00;;;;;;;9.05;7.22;;;896.40;870.40;;;;;;5073322;28;20111;-63
2021/08/23 10:17:28;;;;;;;11.65;6.60;;;896.40;870.40;;;;;;5070690;28;20056;-63
2021/08/23 10:19:54;;;;;;;7.32;6.63;;;896.40;870.40;;;;;;5071737;28;20029;-63
2021/08/23 10:22:20;;;;;;;8.45;6.68;;;896.50;870.40;;;;;;5071847;28;20075;-63
2021/08/23 10:24:47;;;;;;;7.32;6.55;;;896.50;870.40;;;;;;5071525;28;20119;-63
2021/08/23 10:27:23;;;;;;;7.45;6.72;;;896.40;870.40;;;;;;5071545;28;20024;-62
2021/08/23 10:29:50;;;;;;;8.25;6.72;;;896.40;844.80;;;;;;5071217;28;20033;-64
2021/08/23 10:32:16;;;;;;;8.77;6.97;;;896.20;844.80;;;;;;5070774;28;20029;-64
2021/08/23 10:34:43;;;;;;;8.30;7.50;;;871.30;870.40;;;;;;5071439;28;20028;-63
2021/08/23 10:37:20;;;;;;;8.02;6.82;;;871.30;870.40;;;;;;5071289;28;20047;-62
2021/08/23 10:39:57;;;;;;;9.52;7.18;;;871.30;870.40;;;;;;5071299;28;20479;-62
2021/08/23 10:42:23;;;;;;;8.23;7.50;;;871.30;870.40;;;;;;5071488;28;20024;-66
2021/08/23 10:44:48;;;;;;;11.63;7.20;;;896.00;844.80;;;;;;5070415;28;20376;-63
2021/08/23 10:47:14;;;;;;;7.07;6.15;;;871.30;870.40;;;;;;5071003;28;20067;-62
2021/08/23 10:49:44;;;;;;;10.98;7.47;;;871.30;870.40;;;;;;5070885;28;20161;-67
2021/08/23 10:52:15;;;;;;;8.73;7.82;;;896.00;870.40;;;;;;5071139;28;20028;-64
2021/08/23 10:54:47;;;;;;;8.35;7.63;;;896.10;870.40;;;;;;5070993;28;20024;-64
2021/08/23 10:57:18;;;;;;;9.15;7.57;;;896.00;870.40;;;;;;5080974;28;20048;-61
2021/08/23 10:59:48;;;;;;;8.88;6.75;;;896.00;870.40;;;;;;5090896;28;20039;-63
2021/08/23 11:02:16;;;;;;;10.70;7.32;;;896.10;870.40;;;;;;5090737;28;20107;-63
2021/08/23 11:04:58;;;;;;;8.90;7.95;;;896.10;870.40;;;;;;5090905;28;20793;-64
2021/08/23 11:07:29;;;;;;;9.73;7.18;;;896.00;870.40;;;;;;5089329;28;20554;-63
2021/08/23 11:10:24;;;;;;;9.10;6.88;;;896.00;870.40;;;;;;5084949;28;20027;-64
2021/08/23 11:12:57;;;;;;;7.22;6.63;;;871.10;896.00;;;;;;5090714;28;20097;-62
2021/08/23 11:15:30;;;;;;;8.50;7.55;;;871.20;896.00;;;;;;5092542;28;20032;-62
2021/08/23 11:18:05;;;;;;;9.88;6.57;;;871.20;921.60;;;;;;5092533;28;20026;-62
2021/08/23 11:20:33;;;;;;;8.05;7.25;;;871.20;921.60;;;;;;5092581;28;20111;-65
2021/08/23 11:22:59;;;;;;;7.63;6.88;;;871.20;896.00;;;;;;5092423;28;20482;-61
2021/08/23 11:25:36;;;;;;;16.02;8.55;;;871.30;896.00;;;;;;5092125;28;20033;-64
2021/08/23 11:28:07;;;;;;;9.60;7.43;;;871.20;921.60;;;;;;5092517;28;20042;-62
2021/08/23 11:30:46;;;;;;;13.77;8.00;;;871.30;947.20;;;;;;5092512;28;20028;-62
2021/08/23 11:33:22;;;;;;;10.38;8.02;;;871.20;947.20;;;;;;5092150;28;20024;-62
2021/08/23 11:35:48;;;;;;;8.85;7.95;;;871.30;947.20;;;;;;5092060;28;20039;-63
2021/08/23 11:38:14;;;;;;;13.23;8.43;;;871.30;947.20;;;;;;5092397;28;20032;-64
2021/08/23 11:40:40;;;;;;;13.23;8.48;;;871.20;947.20;;;;;;5092239;28;20024;-64
2021/08/23 11:43:07;;;;;;;12.38;8.25;;;871.20;947.20;;;;;;5090680;28;20039;-67
2021/08/23 11:45:37;;;;;;;10.45;7.88;;;871.10;921.60;;;;;;5090271;28;20032;-65
2021/08/23 11:48:03;;;;;;;9.68;8.68;;;871.00;921.60;;;;;;5090650;28;20049;-64
2021/08/23 11:50:29;;;;;;;12.27;7.80;;;870.90;947.20;;;;;;5090099;28;20028;-64
2021/08/23 11:53:02;;;;;;;14.38;7.95;;;870.90;972.80;;;;;;5090134;28;20024;-64
2021/08/23 11:55:33;;;;;;;8.52;7.70;;;870.80;972.80;;;;;;5090004;28;20086;-64
2021/08/23 11:58:11;;;;;;;10.47;8.10;;;870.80;947.20;;;;;;5088896;28;20091;-64
2021/08/23 12:00:39;;;;;;;10.60;8.63;;;870.70;972.80;;;;;;5089770;28;20039;-63
2021/08/23 12:03:12;;;;;;;12.07;8.80;;;870.60;972.80;;;;;;5089708;28;20051;-64
2021/08/23 12:05:44;;;;;;;;;;;870.70;972.80;;;;;;5090160;28;20039;-66
2021/08/23 12:08:34;;;;;;;11.18;7.85;;;870.70;972.80;;;;;;5089987;28;19908;-64
2021/08/23 12:11:17;;;;;;;11.23;7.60;;;870.60;998.40;;;;;;5089358;28;20066;-64
2021/08/23 12:13:45;;;;;;;13.55;9.30;;;870.70;972.80;;;;;;5089723;28;20024;-63
2021/08/23 12:16:15;;;;;;;10.63;8.63;;;870.70;947.20;;;;;;5089926;28;20315;-62